Time;durP1;ratioP1;P1;durP2;ratioP2;P2;SDS_P1;SDS_P2;PMS_P1;PMS_P2;Temp;Humidity;BMP_temperature;BMP_pressure;BME280_temperature;BME280_humidity;BME280_pressure;Samples;Min_cycle;Max_cycle;Signal;HPM_P1;HPM_P2
2023/11/18 00:02:08;;;;;;;8.88;7.38;;;20.90;58.80;;;;;;10342914;28;20202;-46
2023/11/18 00:07:13;;;;;;;9.52;8.48;;;20.90;58.70;;;;;;10344340;28;20678;-48
2023/11/18 00:12:16;;;;;;;8.77;7.88;;;20.90;58.80;;;;;;10346415;28;20240;-47
2023/11/18 00:17:20;;;;;;;8.23;7.43;;;20.80;58.60;;;;;;10343675;28;20257;-47
2023/11/18 00:22:27;;;;;;;8.52;7.65;;;20.80;58.60;;;;;;10334967;28;20255;-47
2023/11/18 00:27:31;;;;;;;9.00;8.10;;;20.90;58.70;;;;;;10332743;28;20245;-48
2023/11/18 00:32:35;;;;;;;8.13;7.40;;;20.80;58.60;;;;;;10331355;28;20329;-46
2023/11/18 00:37:40;;;;;;;7.97;7.18;;;20.90;58.60;;;;;;10339495;28;20641;-46
2023/11/18 00:42:44;;;;;;;8.50;7.70;;;20.90;58.60;;;;;;10344078;28;20217;-46
2023/11/18 00:47:48;;;;;;;8.77;7.88;;;20.90;59.20;;;;;;10341688;28;20245;-46
2023/11/18 00:52:53;;;;;;;8.60;7.80;;;20.80;58.50;;;;;;10339533;28;20201;-46
2023/11/18 00:57:58;;;;;;;7.75;6.85;;;20.80;58.50;;;;;;10340963;28;20651;-46
2023/11/18 01:03:01;;;;;;;8.38;7.38;;;20.90;58.50;;;;;;10356761;28;20197;-47
2023/11/18 01:08:07;;;;;;;7.30;6.70;;;20.90;58.50;;;;;;10343667;28;20263;-48
2023/11/18 01:13:10;;;;;;;7.97;7.18;;;20.90;58.50;;;;;;10338762;28;20205;-47
2023/11/18 01:18:14;;;;;;;7.57;6.55;;;20.80;58.30;;;;;;10336580;28;20307;-47
2023/11/18 01:23:20;;;;;;;7.72;7.00;;;20.80;58.40;;;;;;10330365;28;20259;-48
2023/11/18 01:28:26;;;;;;;7.70;7.00;;;20.90;58.50;;;;;;10325793;28;20222;-48
2023/11/18 01:33:29;;;;;;;7.35;6.68;;;20.80;58.40;;;;;;10329213;28;20389;-47
2023/11/18 01:38:34;;;;;;;7.35;6.65;;;20.80;58.40;;;;;;10328589;28;20245;-47
2023/11/18 01:43:39;;;;;;;7.20;6.50;;;20.80;58.30;;;;;;10335118;28;20198;-45
2023/11/18 01:48:43;;;;;;;7.00;6.32;;;20.80;58.40;;;;;;10343789;28;20233;-46
2023/11/18 01:53:49;;;;;;;7.38;6.65;;;20.80;58.30;;;;;;10339814;28;20201;-47
2023/11/18 01:58:54;;;;;;;6.70;6.00;;;20.90;58.40;;;;;;10349616;28;20271;-46
2023/11/18 02:03:59;;;;;;;7.40;6.70;;;20.80;58.40;;;;;;10346801;28;20197;-47
2023/11/18 02:09:05;;;;;;;7.70;6.43;;;20.80;58.30;;;;;;10342607;28;20299;-46
2023/11/18 02:14:13;;;;;;;6.40;5.80;;;20.80;58.40;;;;;;10345813;28;20213;-47
2023/11/18 02:19:21;;;;;;;7.07;6.40;;;20.80;58.30;;;;;;10338709;28;20240;-47
2023/11/18 02:24:33;;;;;;;6.57;5.88;;;20.80;58.30;;;;;;10352045;28;20228;-47
2023/11/18 02:29:40;;;;;;;6.88;6.25;;;20.80;59.00;;;;;;10345781;28;20221;-47
2023/11/18 02:34:55;;;;;;;6.47;5.88;;;20.90;58.30;;;;;;10348438;28;20217;-46
2023/11/18 02:40:08;;;;;;;6.50;5.88;;;20.80;58.30;;;;;;10350502;28;20692;-47
2023/11/18 02:45:16;;;;;;;7.18;6.47;;;20.80;58.30;;;;;;10343946;28;20220;-48
2023/11/18 02:50:20;;;;;;;6.35;5.75;;;20.80;58.20;;;;;;10344583;28;20333;-46
2023/11/18 02:55:24;;;;;;;6.65;6.05;;;20.80;58.20;;;;;;10325956;28;20293;-47
2023/11/18 03:00:29;;;;;;;6.43;5.82;;;20.80;58.20;;;;;;10348325;28;20205;-47
2023/11/18 03:05:33;;;;;;;6.28;5.68;;;20.80;58.80;;;;;;10332622;28;20218;-47
2023/11/18 03:10:37;;;;;;;6.13;5.53;;;20.80;58.20;;;;;;10355713;28;20201;-47
2023/11/18 03:15:42;;;;;;;5.97;5.43;;;20.80;58.10;;;;;;10346845;28;20225;-46
2023/11/18 03:20:46;;;;;;;6.03;5.43;;;20.80;58.20;;;;;;10349785;28;20201;-47
2023/11/18 03:25:51;;;;;;;5.65;5.15;;;20.80;58.20;;;;;;10344225;28;20217;-47
2023/11/18 03:30:57;;;;;;;6.00;5.35;;;20.80;58.20;;;;;;10352312;28;20205;-46
2023/11/18 03:36:00;;;;;;;5.45;4.95;;;20.80;58.20;;;;;;10357358;28;20298;-47
2023/11/18 03:41:04;;;;;;;5.78;4.97;;;20.80;58.20;;;;;;10369853;28;20205;-48
2023/11/18 03:46:10;;;;;;;5.72;5.22;;;20.80;58.20;;;;;;10356544;28;20222;-46
2023/11/18 03:51:16;;;;;;;5.20;4.70;;;20.80;58.20;;;;;;10368363;28;20270;-48
2023/11/18 03:56:20;;;;;;;5.40;4.90;;;20.80;58.20;;;;;;10348482;28;20244;-46
2023/11/18 04:01:27;;;;;;;5.28;4.75;;;20.80;58.20;;;;;;10368987;28;20204;-46
2023/11/18 04:06:33;;;;;;;5.72;5.22;;;20.80;58.10;;;;;;10323697;28;20312;-47
2023/11/18 04:11:38;;;;;;;5.22;4.72;;;20.80;58.20;;;;;;10307297;28;20225;-48
2023/11/18 04:16:46;;;;;;;5.05;4.55;;;20.80;58.20;;;;;;10356647;28;20229;-46
2023/11/18 04:21:50;;;;;;;6.07;4.97;;;20.80;58.20;;;;;;10363944;28;20293;-47
2023/11/18 04:26:55;;;;;;;10.18;5.32;;;20.80;58.20;;;;;;10346307;28;20274;-46
2023/11/18 04:32:00;;;;;;;5.95;4.57;;;20.80;58.10;;;;;;10349364;28;20728;-46
2023/11/18 04:37:04;;;;;;;7.68;4.53;;;20.80;58.20;;;;;;10332306;28;20229;-45
2023/11/18 04:42:08;;;;;;;7.78;4.90;;;20.80;58.10;;;;;;10365740;28;20244;-47
2023/11/18 04:47:13;;;;;;;8.70;4.45;;;20.90;58.10;;;;;;10347329;28;20253;-48
2023/11/18 04:52:17;;;;;;;5.82;4.72;;;20.90;58.00;;;;;;10358170;28;20263;-47
2023/11/18 04:57:20;;;;;;;5.07;4.60;;;20.80;58.00;;;;;;10347710;28;20224;-46
2023/11/18 05:02:25;;;;;;;4.97;4.40;;;20.80;58.00;;;;;;10353296;28;20278;-47
2023/11/18 05:07:29;;;;;;;5.00;4.40;;;20.80;58.00;;;;;;10347374;28;20222;-46
2023/11/18 05:12:34;;;;;;;4.75;4.05;;;20.80;58.10;;;;;;10347874;28;20208;-46
2023/11/18 05:17:38;;;;;;;4.07;3.67;;;20.80;58.00;;;;;;10333841;28;20268;-47
2023/11/18 05:22:42;;;;;;;4.57;4.03;;;20.80;58.10;;;;;;10364970;28;20206;-47
2023/11/18 05:27:46;;;;;;;4.30;3.90;;;20.80;58.00;;;;;;10348537;28;20272;-47
2023/11/18 05:32:51;;;;;;;4.35;3.95;;;20.80;58.00;;;;;;10337624;28;20200;-47
2023/11/18 05:37:55;;;;;;;4.28;3.83;;;20.90;58.10;;;;;;10354189;28;20252;-47
2023/11/18 05:42:59;;;;;;;4.72;4.32;;;20.80;58.00;;;;;;10354457;28;20201;-46
2023/11/18 05:48:05;;;;;;;4.57;3.97;;;20.90;58.10;;;;;;10344105;28;20222;-47
2023/11/18 05:53:09;;;;;;;4.95;4.00;;;20.90;58.00;;;;;;10347302;28;20209;-46
2023/11/18 05:58:13;;;;;;;3.95;3.65;;;20.90;58.00;;;;;;10353311;28;20249;-48
2023/11/18 06:03:18;;;;;;;4.40;4.03;;;20.80;57.80;;;;;;10350448;28;20662;-47
2023/11/18 06:08:22;;;;;;;4.35;3.95;;;20.80;57.80;;;;;;10352947;28;20255;-46
2023/11/18 06:13:27;;;;;;;3.63;2.95;;;20.90;57.90;;;;;;10352003;28;20577;-47
2023/11/18 06:18:32;;;;;;;4.15;3.78;;;20.80;57.80;;;;;;10350505;28;20229;-47
2023/11/18 06:23:35;;;;;;;4.45;3.75;;;20.90;57.90;;;;;;10345564;28;20260;-46
2023/11/18 06:28:40;;;;;;;3.92;3.53;;;20.90;57.90;;;;;;10342688;28;20288;-46
2023/11/18 06:33:47;;;;;;;7.70;3.47;;;20.90;57.80;;;;;;10343041;28;20205;-47
2023/11/18 06:38:52;;;;;;;6.18;3.83;;;20.80;57.80;;;;;;10346989;28;20229;-46
2023/11/18 06:44:00;;;;;;;3.97;3.53;;;20.80;57.80;;;;;;10335820;28;20210;-46
2023/11/18 06:49:06;;;;;;;21.45;4.60;;;20.90;57.90;;;;;;10341055;28;20228;-47
2023/11/18 06:54:13;;;;;;;20.80;4.40;;;21.00;58.30;;;;;;10341457;28;20251;-46
2023/11/18 06:59:17;;;;;;;20.73;4.75;;;21.10;58.50;;;;;;10331708;28;20253;-46
2023/11/18 07:04:22;;;;;;;9.50;8.52;;;21.00;58.20;;;;;;10335245;28;20228;-45
2023/11/18 07:09:26;;;;;;;9.80;5.65;;;20.00;53.10;;;;;;10325494;28;20685;-44
2023/11/18 07:14:29;;;;;;;7.85;4.85;;;20.50;54.30;;;;;;10337546;28;20205;-45
2023/11/18 07:19:34;;;;;;;10.80;4.78;;;20.60;56.60;;;;;;10332703;28;20256;-44
2023/11/18 07:24:38;;;;;;;10.25;5.22;;;20.80;56.80;;;;;;10315777;28;88848;-44
2023/11/18 07:29:41;;;;;;;16.00;5.25;;;20.90;56.70;;;;;;10321398;28;20697;-43
2023/11/18 07:34:46;;;;;;;9.90;4.43;;;21.00;57.00;;;;;;10319671;28;73984;-43
2023/11/18 07:39:50;;;;;;;8.02;4.50;;;21.00;57.10;;;;;;10329769;28;20234;-42
2023/11/18 07:44:54;;;;;;;14.60;4.70;;;21.10;57.30;;;;;;10297296;28;146354;-40
2023/11/18 07:49:59;;;;;;;19.42;5.40;;;21.10;57.40;;;;;;10323377;28;20225;-42
2023/11/18 07:55:03;;;;;;;18.70;4.88;;;21.10;58.30;;;;;;10317230;28;85491;-43
2023/11/18 08:00:09;;;;;;;15.77;5.45;;;21.20;58.10;;;;;;10322979;28;20683;-37
2023/11/18 08:05:15;;;;;;;13.15;4.57;;;21.10;58.00;;;;;;10324145;28;20202;-38
2023/11/18 08:10:19;;;;;;;12.48;4.63;;;21.00;57.90;;;;;;10321306;28;20198;-41
2023/11/18 08:15:23;;;;;;;8.70;4.47;;;21.10;58.30;;;;;;10325855;28;20221;-44
2023/11/18 08:20:28;;;;;;;11.80;5.10;;;21.00;58.00;;;;;;10332707;28;20222;-40
2023/11/18 08:25:33;;;;;;;10.65;4.75;;;21.00;58.00;;;;;;10331325;28;20244;-40
2023/11/18 08:30:39;;;;;;;9.20;4.40;;;21.00;58.10;;;;;;10319586;28;20194;-44
2023/11/18 08:35:44;;;;;;;8.48;4.22;;;21.00;58.20;;;;;;10334792;28;20650;-42
2023/11/18 08:40:48;;;;;;;9.45;4.22;;;21.00;58.10;;;;;;10331414;28;20672;-43
2023/11/18 08:45:52;;;;;;;8.77;4.70;;;20.90;58.10;;;;;;10326474;28;20693;-44
2023/11/18 08:50:57;;;;;;;9.82;7.78;;;20.90;58.10;;;;;;10324896;28;20225;-42
2023/11/18 08:56:02;;;;;;;9.55;6.97;;;20.40;50.50;;;;;;10328097;28;20650;-44
2023/11/18 09:01:13;;;;;;;7.60;5.13;;;19.60;49.80;;;;;;10331213;28;20257;-42
2023/11/18 09:06:19;;;;;;;5.10;4.30;;;20.20;52.10;;;;;;10327643;28;20229;-42
2023/11/18 09:11:26;;;;;;;7.05;4.43;;;20.40;52.30;;;;;;10328559;28;20704;-43
2023/11/18 09:16:32;;;;;;;6.00;3.92;;;20.50;53.00;;;;;;10334235;28;20233;-42
2023/11/18 09:21:39;;;;;;;4.10;3.67;;;20.60;53.40;;;;;;10321326;28;20255;-41
2023/11/18 09:26:44;;;;;;;4.53;3.33;;;20.60;53.70;;;;;;10325352;28;20221;-42
2023/11/18 09:31:49;;;;;;;6.55;3.22;;;20.70;53.70;;;;;;10330202;28;20205;-42
2023/11/18 09:36:55;;;;;;;4.45;2.80;;;20.70;54.00;;;;;;10323950;28;20831;-41
2023/11/18 09:42:02;;;;;;;4.32;2.55;;;20.80;54.50;;;;;;10313846;28;20225;-44
2023/11/18 09:47:10;;;;;;;3.83;2.75;;;20.80;54.40;;;;;;10323066;28;20308;-41
2023/11/18 09:52:21;;;;;;;3.88;2.40;;;20.80;54.30;;;;;;10328185;28;20256;-40
2023/11/18 09:57:39;;;;;;;2.95;2.25;;;20.80;54.40;;;;;;10324716;28;20253;-41
2023/11/18 10:02:46;;;;;;;2.90;2.45;;;20.80;54.70;;;;;;10328244;28;20764;-43
2023/11/18 10:07:51;;;;;;;2.83;2.13;;;20.80;55.00;;;;;;10327068;28;20221;-41
2023/11/18 10:12:57;;;;;;;3.65;2.30;;;20.80;55.00;;;;;;10325936;28;20239;-41
2023/11/18 10:18:07;;;;;;;3.47;2.30;;;20.90;55.10;;;;;;10324405;28;20307;-43
2023/11/18 10:23:19;;;;;;;2.75;2.17;;;20.90;55.20;;;;;;10327257;28;20244;-43
2023/11/18 10:28:24;;;;;;;3.22;2.30;;;20.80;55.30;;;;;;10321647;28;20245;-41
2023/11/18 10:33:30;;;;;;;3.35;2.20;;;20.90;55.30;;;;;;10325808;28;20668;-41
2023/11/18 10:38:43;;;;;;;3.72;2.10;;;20.80;55.50;;;;;;10326564;28;20649;-42
2023/11/18 10:43:48;;;;;;;2.83;2.33;;;20.80;55.60;;;;;;10326036;28;20209;-43
2023/11/18 10:48:52;;;;;;;2.47;2.08;;;20.80;55.60;;;;;;10324845;28;20252;-42
2023/11/18 10:54:00;;;;;;;3.47;2.35;;;20.80;55.60;;;;;;10324445;28;20802;-42
2023/11/18 10:59:06;;;;;;;3.22;2.08;;;20.80;55.80;;;;;;10319276;28;20261;-38
2023/11/18 11:04:11;;;;;;;4.05;2.13;;;20.80;56.00;;;;;;10317294;28;20230;-39
2023/11/18 11:09:16;;;;;;;4.55;2.28;;;20.80;56.10;;;;;;10308676;28;20217;-40
2023/11/18 11:14:24;;;;;;;9.05;2.40;;;20.80;56.20;;;;;;10326271;28;20257;-45
2023/11/18 11:24:01;;;;;;;6.15;2.50;;;21.60;59.70;;;;;;10391690;27;20620;-44
2023/11/18 11:29:14;;;;;;;4.47;2.50;;;21.20;56.80;;;;;;10459211;28;20273;-42
2023/11/18 11:37:25;;;;;;;5.68;2.67;;;21.00;57.50;;;;;;10473590;27;20573;-44
2023/11/18 11:44:13;;;;;;;3.50;2.00;;;20.90;58.20;;;;;;10544341;27;20573;-42
2023/11/18 11:52:16;;;;;;;13.35;2.78;;;20.90;58.00;;;;;;10444634;27;21137;-43
2023/11/18 11:57:19;;;;;;;7.78;2.53;;;20.90;58.10;;;;;;10481638;28;20296;-44
2023/11/18 12:02:26;;;;;;;6.18;2.38;;;20.90;57.90;;;;;;10476996;28;20222;-43
2023/11/18 12:07:38;;;;;;;6.97;2.42;;;20.90;58.40;;;;;;10477249;28;20297;-45
2023/11/18 12:25:49;;;;;;;10.30;4.57;;;14.40;55.60;;;;;;10398702;27;21166;-66
2023/11/18 12:30:55;;;;;;;8.25;5.30;;;13.30;55.20;;;;;;10359146;28;20672;-64
2023/11/18 12:36:39;;;;;;;7.25;5.43;;;12.30;56.10;;;;;;10414573;28;20224;-66
2023/11/18 12:41:50;;;;;;;7.40;4.93;;;11.60;58.30;;;;;;10397676;28;20289;-68
2023/11/18 12:46:55;;;;;;;8.90;5.65;;;11.10;58.50;;;;;;10397875;28;20247;-70
2023/11/18 12:52:00;;;;;;;6.83;4.90;;;10.70;58.90;;;;;;10403112;28;20227;-66
2023/11/18 12:57:06;;;;;;;11.65;7.03;;;10.50;60.20;;;;;;10402461;28;20212;-67
2023/11/18 13:02:13;;;;;;;6.50;4.97;;;10.30;59.70;;;;;;10388058;28;20260;-67
2023/11/18 13:07:18;;;;;;;9.27;6.05;;;10.20;61.80;;;;;;10391583;28;20266;-64
2023/11/18 13:12:24;;;;;;;8.30;5.07;;;10.10;62.00;;;;;;10385878;28;20302;-67
2023/11/18 13:17:28;;;;;;;7.17;5.30;;;10.00;61.80;;;;;;10391359;28;20209;-65
2023/11/18 13:22:32;;;;;;;7.55;5.53;;;9.90;65.00;;;;;;10383343;28;20313;-65
2023/11/18 13:27:51;;;;;;;10.03;5.37;;;9.80;64.70;;;;;;10338348;28;20232;-66
2023/11/18 13:32:56;;;;;;;7.30;5.13;;;9.80;65.20;;;;;;10390558;28;20220;-67
2023/11/18 13:37:59;;;;;;;6.97;4.60;;;9.90;66.30;;;;;;10368600;28;20228;-66
2023/11/18 13:43:08;;;;;;;7.37;5.10;;;9.80;66.20;;;;;;10368103;28;20229;-65
2023/11/18 13:48:13;;;;;;;8.77;6.07;;;9.80;66.50;;;;;;10360833;28;20205;-66
2023/11/18 13:53:17;;;;;;;7.32;5.43;;;9.80;66.60;;;;;;10367786;28;20225;-71
2023/11/18 13:58:24;;;;;;;8.30;4.63;;;9.80;67.20;;;;;;10365352;28;20245;-68
2023/11/18 14:03:27;;;;;;;9.07;4.67;;;9.70;68.00;;;;;;10368254;28;20225;-70
2023/11/18 14:08:31;;;;;;;5.30;4.50;;;9.70;68.40;;;;;;10367264;28;20263;-67
2023/11/18 14:14:14;;;;;;;7.33;4.70;;;9.70;68.00;;;;;;10366183;28;20566;-65
2023/11/18 14:19:18;;;;;;;7.20;4.17;;;9.70;66.80;;;;;;10359156;28;20268;-68
2023/11/18 14:24:22;;;;;;;8.50;4.40;;;9.70;67.60;;;;;;10369665;28;20917;-68
2023/11/18 14:29:28;;;;;;;7.60;4.40;;;9.70;67.90;;;;;;10368724;28;20762;-67
2023/11/18 14:34:33;;;;;;;8.97;4.87;;;9.70;67.40;;;;;;10369556;28;20271;-71
2023/11/18 14:39:36;;;;;;;4.97;3.67;;;9.70;69.00;;;;;;10366510;28;21962;-67
2023/11/18 14:44:41;;;;;;;7.07;4.20;;;9.70;67.80;;;;;;10367660;28;20221;-67
2023/11/18 14:49:45;;;;;;;5.15;3.67;;;9.70;68.50;;;;;;10369104;28;20225;-66
2023/11/18 14:54:55;;;;;;;5.50;3.23;;;9.70;69.40;;;;;;10365550;28;20223;-68
2023/11/18 15:00:21;;;;;;;7.10;3.73;;;9.60;67.80;;;;;;10354339;28;20644;-69
2023/11/18 15:05:44;;;;;;;6.70;3.88;;;9.60;69.30;;;;;;10364825;28;20228;-68
2023/11/18 15:10:47;;;;;;;9.87;4.97;;;9.60;68.80;;;;;;10369059;28;20759;-67
2023/11/18 15:15:52;;;;;;;8.55;3.80;;;9.50;70.80;;;;;;10370332;28;20198;-70
2023/11/18 15:20:56;;;;;;;8.35;3.88;;;9.70;72.90;;;;;;10368874;28;20252;-65
2023/11/18 15:26:00;;;;;;;6.37;3.43;;;9.70;70.40;;;;;;10367074;28;20224;-64
2023/11/18 15:31:05;;;;;;;5.25;3.25;;;9.70;71.90;;;;;;10312284;28;20264;-65
2023/11/18 15:36:11;;;;;;;10.10;5.13;;;9.60;71.60;;;;;;10306986;28;126128;-63
2023/11/18 15:41:14;;;;;;;6.50;3.60;;;9.50;71.70;;;;;;10367076;28;20224;-64
2023/11/18 15:46:19;;;;;;;4.85;2.97;;;9.50;71.40;;;;;;10363844;28;20229;-65
2023/11/18 15:51:26;;;;;;;5.80;3.60;;;9.50;71.30;;;;;;10332403;28;20221;-63
2023/11/18 15:56:29;;;;;;;6.07;3.85;;;9.50;73.00;;;;;;10316303;28;20224;-64
2023/11/18 16:01:34;;;;;;;10.73;5.32;;;9.40;72.60;;;;;;10363830;28;20688;-64
2023/11/18 16:06:38;;;;;;;9.03;4.40;;;9.40;72.10;;;;;;10335099;28;20770;-64
2023/11/18 16:11:42;;;;;;;9.82;5.75;;;9.40;72.70;;;;;;10364300;28;20513;-61
2023/11/18 16:16:47;;;;;;;12.87;5.93;;;9.50;78.60;;;;;;10367893;28;20212;-60
2023/11/18 16:21:52;;;;;;;7.22;3.67;;;9.60;76.60;;;;;;10364975;28;20287;-61
2023/11/18 16:26:56;;;;;;;14.63;6.10;;;9.50;75.20;;;;;;10363133;28;20255;-61
2023/11/18 16:32:01;;;;;;;3.20;2.45;;;9.50;76.50;;;;;;10363829;28;20252;-62
2023/11/18 16:37:05;;;;;;;5.15;2.58;;;9.50;75.40;;;;;;10341062;28;20592;-62
2023/11/18 16:42:09;;;;;;;4.37;2.53;;;9.50;75.10;;;;;;10361636;28;20228;-60
2023/11/18 16:47:14;;;;;;;4.50;2.77;;;9.40;75.30;;;;;;10364447;28;20267;-61
2023/11/18 16:52:17;;;;;;;5.38;2.90;;;9.40;74.90;;;;;;10269001;28;20934;-61
2023/11/18 16:57:21;;;;;;;6.40;3.28;;;9.40;75.70;;;;;;10358355;28;20209;-61
2023/11/18 17:02:28;;;;;;;2.22;1.70;;;9.40;77.00;;;;;;10358894;28;20303;-60
2023/11/18 17:07:31;;;;;;;3.37;2.40;;;9.40;76.40;;;;;;10361488;28;20799;-60
2023/11/18 17:12:35;;;;;;;5.67;3.00;;;9.40;76.00;;;;;;10372346;28;20217;-61
2023/11/18 17:17:41;;;;;;;5.83;2.60;;;9.40;75.90;;;;;;10363126;28;20850;-60
2023/11/18 17:22:45;;;;;;;4.68;2.03;;;9.50;77.80;;;;;;10371788;28;20228;-60
2023/11/18 17:27:49;;;;;;;4.23;2.50;;;9.50;77.00;;;;;;10344612;28;20240;-61
2023/11/18 17:32:54;;;;;;;4.17;1.80;;;9.50;78.10;;;;;;10369328;28;20635;-61
2023/11/18 17:37:58;;;;;;;7.53;3.73;;;9.50;76.60;;;;;;10370348;28;20574;-61
2023/11/18 17:43:04;;;;;;;3.00;2.00;;;9.50;77.20;;;;;;10371766;28;20229;-61
2023/11/18 17:48:09;;;;;;;3.83;2.10;;;9.50;78.10;;;;;;10368531;28;20328;-60
2023/11/18 17:53:12;;;;;;;2.07;1.80;;;9.50;78.50;;;;;;10370347;28;20312;-60
2023/11/18 17:58:16;;;;;;;4.07;2.40;;;9.50;79.10;;;;;;10369983;28;20228;-61
2023/11/18 18:03:21;;;;;;;1.70;1.33;;;9.60;80.00;;;;;;10371948;28;20225;-61
2023/11/18 18:08:25;;;;;;;1.80;1.30;;;9.60;79.30;;;;;;10370688;28;20213;-60
2023/11/18 18:13:31;;;;;;;3.67;2.20;;;9.60;79.70;;;;;;10371483;28;20217;-61
2023/11/18 18:18:36;;;;;;;4.57;2.83;;;9.60;78.80;;;;;;10368718;28;20301;-61
2023/11/18 18:23:39;;;;;;;2.07;1.07;;;9.60;79.70;;;;;;10371616;28;20471;-61
2023/11/18 18:28:43;;;;;;;3.80;2.40;;;9.60;81.00;;;;;;10369893;28;20589;-61
2023/11/18 18:33:50;;;;;;;4.90;3.20;;;9.70;79.90;;;;;;10333658;28;20221;-62
2023/11/18 18:38:54;;;;;;;4.00;1.80;;;9.70;80.60;;;;;;10369609;28;20201;-62
2023/11/18 18:43:57;;;;;;;3.27;1.90;;;9.70;81.60;;;;;;10367648;28;20248;-60
2023/11/18 18:49:03;;;;;;;2.92;1.40;;;9.70;80.70;;;;;;10375775;28;20247;-62
2023/11/18 18:54:06;;;;;;;3.33;1.67;;;9.70;81.80;;;;;;10368885;28;20252;-62
2023/11/18 18:59:11;;;;;;;2.65;1.58;;;9.70;82.00;;;;;;10367458;28;20253;-64
2023/11/18 19:04:17;;;;;;;1.80;1.30;;;9.70;80.30;;;;;;10368753;28;20229;-61
2023/11/18 19:09:21;;;;;;;2.40;1.57;;;9.70;81.00;;;;;;10369409;28;20637;-62
2023/11/18 19:14:25;;;;;;;3.93;1.73;;;9.70;81.00;;;;;;10372047;28;20232;-68
2023/11/18 19:19:30;;;;;;;3.37;1.67;;;9.70;83.30;;;;;;10363591;28;20303;-61
2023/11/18 19:24:34;;;;;;;4.53;2.00;;;9.70;82.90;;;;;;10362437;28;20220;-60
2023/11/18 19:29:38;;;;;;;4.23;2.10;;;9.70;82.70;;;;;;10372508;28;20229;-60
2023/11/18 19:34:46;;;;;;;2.40;1.93;;;9.70;83.30;;;;;;10368581;28;20239;-61
2023/11/18 19:39:50;;;;;;;4.43;2.57;;;9.80;82.80;;;;;;10369834;28;20271;-60
2023/11/18 19:44:53;;;;;;;3.67;2.50;;;9.80;82.80;;;;;;10371087;28;20684;-61
2023/11/18 19:49:58;;;;;;;3.37;2.20;;;9.80;84.60;;;;;;10368927;28;20228;-60
2023/11/18 19:55:02;;;;;;;5.70;2.80;;;9.90;83.40;;;;;;10365484;28;20666;-60
2023/11/18 20:00:08;;;;;;;1.47;1.30;;;9.90;83.40;;;;;;10334486;28;20585;-61
2023/11/18 20:05:13;;;;;;;2.90;1.77;;;9.90;83.60;;;;;;10368760;28;20782;-61
2023/11/18 20:10:17;;;;;;;1.37;1.20;;;9.90;84.80;;;;;;10364618;28;20221;-61
2023/11/18 20:15:27;;;;;;;2.90;1.90;;;10.00;83.80;;;;;;10366086;28;20254;-60
2023/11/18 20:20:32;;;;;;;3.23;2.00;;;10.00;84.50;;;;;;10366817;28;20258;-61
2023/11/18 20:25:36;;;;;;;2.73;2.00;;;10.00;84.40;;;;;;10364862;28;20256;-61
2023/11/18 20:30:40;;;;;;;2.60;1.50;;;10.10;84.80;;;;;;10367331;28;20267;-61
2023/11/18 20:35:45;;;;;;;3.27;1.60;;;10.10;85.70;;;;;;10366090;28;20197;-60
2023/11/18 20:40:49;;;;;;;2.43;1.70;;;10.20;86.10;;;;;;10364738;28;20601;-61
2023/11/18 20:45:52;;;;;;;1.98;1.73;;;10.20;86.90;;;;;;10367939;28;20822;-60
2023/11/18 20:50:57;;;;;;;2.13;1.93;;;10.20;85.90;;;;;;10384341;28;20577;-59
2023/11/18 20:56:01;;;;;;;1.90;1.70;;;10.20;85.20;;;;;;10374178;28;20589;-59
2023/11/18 21:01:10;;;;;;;2.25;1.48;;;10.30;86.60;;;;;;10376902;28;20229;-59
2023/11/18 21:06:17;;;;;;;2.63;1.90;;;10.30;85.60;;;;;;10386610;28;20224;-64
2023/11/18 21:11:27;;;;;;;2.63;1.97;;;10.30;85.80;;;;;;10372940;28;20318;-61
2023/11/18 21:16:32;;;;;;;2.10;1.90;;;10.30;86.80;;;;;;10375661;28;20205;-59
2023/11/18 21:21:37;;;;;;;3.83;2.30;;;10.30;86.80;;;;;;10369642;28;20263;-60
2023/11/18 21:26:41;;;;;;;2.70;1.85;;;10.40;87.90;;;;;;10372245;28;20256;-59
2023/11/18 21:31:45;;;;;;;2.17;1.88;;;10.40;89.50;;;;;;10377400;28;20271;-58
2023/11/18 21:36:51;;;;;;;4.57;3.63;;;10.40;88.80;;;;;;10371631;28;20276;-61
2023/11/18 21:41:54;;;;;;;3.17;2.60;;;10.40;90.10;;;;;;10370269;28;20233;-60
2023/11/18 21:46:58;;;;;;;7.50;4.17;;;10.50;89.10;;;;;;10339666;28;20271;-60
2023/11/18 21:52:03;;;;;;;4.00;2.87;;;10.50;89.40;;;;;;10370416;28;20232;-60
2023/11/18 21:57:07;;;;;;;2.15;2.00;;;10.50;90.20;;;;;;10371448;28;20255;-60
2023/11/18 22:02:11;;;;;;;3.50;2.70;;;10.50;90.10;;;;;;10378906;28;20297;-60
2023/11/18 22:07:17;;;;;;;3.47;2.90;;;10.60;89.80;;;;;;10372597;28;20766;-61
2023/11/18 22:12:23;;;;;;;4.15;2.60;;;10.60;89.90;;;;;;10372499;28;20626;-59
2023/11/18 22:17:27;;;;;;;2.50;2.13;;;10.60;89.20;;;;;;10370268;28;20229;-62
2023/11/18 22:22:32;;;;;;;2.30;2.10;;;10.70;89.20;;;;;;10369476;28;20255;-62
2023/11/18 22:27:39;;;;;;;2.50;2.30;;;10.70;90.70;;;;;;10372203;28;20260;-62
2023/11/18 22:32:43;;;;;;;5.75;3.53;;;10.70;90.00;;;;;;10373908;28;20220;-62
2023/11/18 22:37:50;;;;;;;3.35;2.63;;;10.80;90.20;;;;;;10371617;28;20559;-61
2023/11/18 22:42:53;;;;;;;3.50;2.63;;;10.80;91.10;;;;;;10369939;28;20715;-61
2023/11/18 22:47:59;;;;;;;2.90;2.27;;;10.80;90.40;;;;;;10368371;28;20240;-61
2023/11/18 22:53:04;;;;;;;7.25;3.85;;;10.80;91.00;;;;;;10368984;28;20221;-61
2023/11/18 22:58:12;;;;;;;2.53;1.90;;;10.90;90.70;;;;;;10372967;28;20196;-61
2023/11/18 23:03:16;;;;;;;4.30;2.40;;;10.90;93.10;;;;;;10369382;28;20228;-61
2023/11/18 23:08:22;;;;;;;2.10;1.90;;;11.00;92.20;;;;;;10367261;28;20696;-61
2023/11/18 23:13:26;;;;;;;3.10;2.20;;;11.00;92.10;;;;;;10368949;28;20290;-61
2023/11/18 23:18:29;;;;;;;2.67;1.90;;;11.00;91.20;;;;;;10367206;28;20229;-60
2023/11/18 23:23:35;;;;;;;2.90;2.42;;;11.10;92.60;;;;;;10367071;28;20637;-61
2023/11/18 23:28:39;;;;;;;5.85;3.05;;;11.10;91.90;;;;;;10365232;28;20616;-62
2023/11/18 23:33:42;;;;;;;1.50;1.40;;;11.10;91.60;;;;;;10367994;28;20220;-59
2023/11/18 23:38:49;;;;;;;3.60;2.17;;;11.20;92.40;;;;;;10368382;28;20204;-60
2023/11/18 23:43:54;;;;;;;2.55;1.95;;;11.20;92.20;;;;;;10369069;28;20204;-60
2023/11/18 23:48:58;;;;;;;3.28;2.15;;;11.20;93.10;;;;;;10373798;28;20247;-60
2023/11/18 23:54:03;;;;;;;3.40;2.67;;;11.30;92.40;;;;;;10368645;28;20204;-60
2023/11/18 23:59:07;;;;;;;2.92;2.42;;;11.30;93.10;;;;;;10364869;28;20205;-60
